sensor_id;sensor_type;location;lat;lon;timestamp;temperature;humidity
12839;DHT22;6486;51.034;5.262;2023-05-21T00:00:19;16.90;56.50
12839;DHT22;6486;51.034;5.262;2023-05-21T00:02:45;16.90;56.60
12839;DHT22;6486;51.034;5.262;2023-05-21T00:05:11;16.80;56.60
12839;DHT22;6486;51.034;5.262;2023-05-21T00:07:39;16.80;56.80
12839;DHT22;6486;51.034;5.262;2023-05-21T00:10:05;16.80;56.80
12839;DHT22;6486;51.034;5.262;2023-05-21T00:12:31;16.70;56.90
12839;DHT22;6486;51.034;5.262;2023-05-21T00:14:57;16.70;57.10
12839;DHT22;6486;51.034;5.262;2023-05-21T00:17:24;16.60;57.10
12839;DHT22;6486;51.034;5.262;2023-05-21T00:19:50;16.60;57.20
12839;DHT22;6486;51.034;5.262;2023-05-21T00:22:16;16.50;57.20
12839;DHT22;6486;51.034;5.262;2023-05-21T00:24:42;16.50;57.30
12839;DHT22;6486;51.034;5.262;2023-05-21T00:27:11;16.50;57.50
12839;DHT22;6486;51.034;5.262;2023-05-21T00:29:37;16.40;57.50
12839;DHT22;6486;51.034;5.262;2023-05-21T00:32:03;16.40;57.60
12839;DHT22;6486;51.034;5.262;2023-05-21T00:34:28;16.40;57.70
12839;DHT22;6486;51.034;5.262;2023-05-21T00:36:54;16.40;57.70
12839;DHT22;6486;51.034;5.262;2023-05-21T00:39:20;16.30;57.80
12839;DHT22;6486;51.034;5.262;2023-05-21T00:41:46;16.20;58.00
12839;DHT22;6486;51.034;5.262;2023-05-21T00:44:13;16.20;58.20
12839;DHT22;6486;51.034;5.262;2023-05-21T00:46:41;16.10;58.10
12839;DHT22;6486;51.034;5.262;2023-05-21T00:49:09;16.10;58.20
12839;DHT22;6486;51.034;5.262;2023-05-21T00:51:35;16.10;58.30
12839;DHT22;6486;51.034;5.262;2023-05-21T00:54:00;16.10;58.30
12839;DHT22;6486;51.034;5.262;2023-05-21T00:56:27;16.10;58.40
12839;DHT22;6486;51.034;5.262;2023-05-21T00:58:54;16.10;58.40
12839;DHT22;6486;51.034;5.262;2023-05-21T01:01:22;16.10;58.40
12839;DHT22;6486;51.034;5.262;2023-05-21T01:03:51;16.00;58.40
12839;DHT22;6486;51.034;5.262;2023-05-21T01:06:18;16.00;58.60
12839;DHT22;6486;51.034;5.262;2023-05-21T01:08:45;16.00;58.60
12839;DHT22;6486;51.034;5.262;2023-05-21T01:11:11;15.90;58.60
12839;DHT22;6486;51.034;5.262;2023-05-21T01:13:40;15.90;58.70
12839;DHT22;6486;51.034;5.262;2023-05-21T01:16:07;15.90;58.80
12839;DHT22;6486;51.034;5.262;2023-05-21T01:18:34;15.90;58.90
12839;DHT22;6486;51.034;5.262;2023-05-21T01:21:02;15.80;59.00
12839;DHT22;6486;51.034;5.262;2023-05-21T01:23:28;15.80;59.20
12839;DHT22;6486;51.034;5.262;2023-05-21T01:25:54;15.70;59.20
12839;DHT22;6486;51.034;5.262;2023-05-21T01:28:20;15.70;59.30
12839;DHT22;6486;51.034;5.262;2023-05-21T01:30:46;15.70;59.40
12839;DHT22;6486;51.034;5.262;2023-05-21T01:33:24;15.70;59.40
12839;DHT22;6486;51.034;5.262;2023-05-21T01:41:01;15.70;59.50
12839;DHT22;6486;51.034;5.262;2023-05-21T01:43:32;15.60;59.50
12839;DHT22;6486;51.034;5.262;2023-05-21T01:45:59;15.60;59.50
12839;DHT22;6486;51.034;5.262;2023-05-21T01:48:27;15.60;59.60
12839;DHT22;6486;51.034;5.262;2023-05-21T01:50:54;15.60;59.70
12839;DHT22;6486;51.034;5.262;2023-05-21T01:53:20;15.50;59.70
12839;DHT22;6486;51.034;5.262;2023-05-21T01:55:46;15.50;59.90
12839;DHT22;6486;51.034;5.262;2023-05-21T01:58:13;15.50;59.90
12839;DHT22;6486;51.034;5.262;2023-05-21T02:00:40;15.50;59.90
12839;DHT22;6486;51.034;5.262;2023-05-21T02:03:06;15.50;60.10
12839;DHT22;6486;51.034;5.262;2023-05-21T02:05:33;15.40;60.20
12839;DHT22;6486;51.034;5.262;2023-05-21T02:07:59;15.50;60.40
12839;DHT22;6486;51.034;5.262;2023-05-21T02:10:25;15.40;60.40
12839;DHT22;6486;51.034;5.262;2023-05-21T02:12:51;15.40;60.50
12839;DHT22;6486;51.034;5.262;2023-05-21T02:15:17;15.40;60.60
12839;DHT22;6486;51.034;5.262;2023-05-21T02:17:44;15.40;60.70
12839;DHT22;6486;51.034;5.262;2023-05-21T02:20:10;15.30;60.70
12839;DHT22;6486;51.034;5.262;2023-05-21T02:22:43;15.30;60.80
12839;DHT22;6486;51.034;5.262;2023-05-21T02:25:09;15.30;60.90
12839;DHT22;6486;51.034;5.262;2023-05-21T02:27:36;15.40;61.10
12839;DHT22;6486;51.034;5.262;2023-05-21T02:30:03;15.40;61.10
12839;DHT22;6486;51.034;5.262;2023-05-21T02:32:30;15.40;61.20
12839;DHT22;6486;51.034;5.262;2023-05-21T02:34:59;15.30;61.10
12839;DHT22;6486;51.034;5.262;2023-05-21T02:37:26;15.30;61.20
12839;DHT22;6486;51.034;5.262;2023-05-21T02:39:53;15.30;61.40
12839;DHT22;6486;51.034;5.262;2023-05-21T02:42:20;15.30;61.60
12839;DHT22;6486;51.034;5.262;2023-05-21T02:44:45;15.30;61.70
12839;DHT22;6486;51.034;5.262;2023-05-21T02:47:11;15.30;61.80
12839;DHT22;6486;51.034;5.262;2023-05-21T02:49:37;15.30;61.70
12839;DHT22;6486;51.034;5.262;2023-05-21T02:52:03;15.30;61.70
12839;DHT22;6486;51.034;5.262;2023-05-21T02:54:29;15.30;61.90
12839;DHT22;6486;51.034;5.262;2023-05-21T02:56:55;15.30;61.90
12839;DHT22;6486;51.034;5.262;2023-05-21T02:59:21;15.30;61.90
12839;DHT22;6486;51.034;5.262;2023-05-21T03:01:46;15.30;61.90
12839;DHT22;6486;51.034;5.262;2023-05-21T03:04:12;15.30;61.90
12839;DHT22;6486;51.034;5.262;2023-05-21T03:06:37;15.30;62.00
12839;DHT22;6486;51.034;5.262;2023-05-21T03:09:03;15.30;62.00
12839;DHT22;6486;51.034;5.262;2023-05-21T03:11:30;15.30;62.10
12839;DHT22;6486;51.034;5.262;2023-05-21T03:13:56;15.30;62.10
12839;DHT22;6486;51.034;5.262;2023-05-21T03:16:21;15.30;62.10
12839;DHT22;6486;51.034;5.262;2023-05-21T03:18:47;15.20;62.10
12839;DHT22;6486;51.034;5.262;2023-05-21T03:21:13;15.20;62.20
12839;DHT22;6486;51.034;5.262;2023-05-21T03:23:40;15.20;62.30
12839;DHT22;6486;51.034;5.262;2023-05-21T03:26:07;15.20;62.30
12839;DHT22;6486;51.034;5.262;2023-05-21T03:28:34;15.20;62.40
12839;DHT22;6486;51.034;5.262;2023-05-21T03:31:00;15.20;62.40
12839;DHT22;6486;51.034;5.262;2023-05-21T03:33:25;15.10;62.40
12839;DHT22;6486;51.034;5.262;2023-05-21T03:35:51;15.10;62.70
12839;DHT22;6486;51.034;5.262;2023-05-21T03:38:17;15.00;62.80
12839;DHT22;6486;51.034;5.262;2023-05-21T03:40:42;15.00;62.90
12839;DHT22;6486;51.034;5.262;2023-05-21T03:43:08;15.00;63.00
12839;DHT22;6486;51.034;5.262;2023-05-21T03:45:34;15.00;63.00
12839;DHT22;6486;51.034;5.262;2023-05-21T03:47:59;15.00;63.10
12839;DHT22;6486;51.034;5.262;2023-05-21T03:50:26;15.00;63.10
12839;DHT22;6486;51.034;5.262;2023-05-21T03:52:52;14.90;63.10
12839;DHT22;6486;51.034;5.262;2023-05-21T03:55:17;14.90;63.20
12839;DHT22;6486;51.034;5.262;2023-05-21T03:57:43;14.90;63.30
12839;DHT22;6486;51.034;5.262;2023-05-21T04:00:09;14.90;63.30
12839;DHT22;6486;51.034;5.262;2023-05-21T04:02:35;14.90;63.30
12839;DHT22;6486;51.034;5.262;2023-05-21T04:05:00;14.90;63.30
12839;DHT22;6486;51.034;5.262;2023-05-21T04:07:26;14.90;63.30
12839;DHT22;6486;51.034;5.262;2023-05-21T04:09:54;15.00;63.50
12839;DHT22;6486;51.034;5.262;2023-05-21T04:12:20;15.00;63.50
12839;DHT22;6486;51.034;5.262;2023-05-21T04:14:47;15.00;63.50
12839;DHT22;6486;51.034;5.262;2023-05-21T04:17:12;15.00;63.50
12839;DHT22;6486;51.034;5.262;2023-05-21T04:19:38;15.00;63.50
12839;DHT22;6486;51.034;5.262;2023-05-21T04:22:04;15.10;63.60
12839;DHT22;6486;51.034;5.262;2023-05-21T04:24:30;15.10;63.60
12839;DHT22;6486;51.034;5.262;2023-05-21T04:26:56;15.10;63.60
12839;DHT22;6486;51.034;5.262;2023-05-21T04:29:26;15.10;63.60
12839;DHT22;6486;51.034;5.262;2023-05-21T04:31:51;15.10;63.70
12839;DHT22;6486;51.034;5.262;2023-05-21T04:34:17;15.10;63.70
12839;DHT22;6486;51.034;5.262;2023-05-21T04:36:44;15.10;63.80
12839;DHT22;6486;51.034;5.262;2023-05-21T04:39:10;15.20;63.80
12839;DHT22;6486;51.034;5.262;2023-05-21T04:41:37;15.20;63.90
12839;DHT22;6486;51.034;5.262;2023-05-21T04:44:06;15.20;63.80
12839;DHT22;6486;51.034;5.262;2023-05-21T04:46:32;15.20;63.70
12839;DHT22;6486;51.034;5.262;2023-05-21T04:49:01;15.30;63.80
12839;DHT22;6486;51.034;5.262;2023-05-21T04:51:28;15.30;63.80
12839;DHT22;6486;51.034;5.262;2023-05-21T04:53:54;15.30;63.80
12839;DHT22;6486;51.034;5.262;2023-05-21T04:56:19;15.40;63.90
12839;DHT22;6486;51.034;5.262;2023-05-21T04:58:51;15.40;63.90
12839;DHT22;6486;51.034;5.262;2023-05-21T05:01:17;15.40;63.80
12839;DHT22;6486;51.034;5.262;2023-05-21T05:03:44;15.50;63.90
12839;DHT22;6486;51.034;5.262;2023-05-21T05:06:10;15.50;63.80
12839;DHT22;6486;51.034;5.262;2023-05-21T05:08:37;15.60;63.90
12839;DHT22;6486;51.034;5.262;2023-05-21T05:11:03;15.60;63.80
12839;DHT22;6486;51.034;5.262;2023-05-21T05:13:28;15.70;63.90
12839;DHT22;6486;51.034;5.262;2023-05-21T05:15:54;15.70;63.80
12839;DHT22;6486;51.034;5.262;2023-05-21T05:18:21;15.70;63.80
12839;DHT22;6486;51.034;5.262;2023-05-21T05:20:47;15.80;63.80
12839;DHT22;6486;51.034;5.262;2023-05-21T05:23:13;15.90;63.90
12839;DHT22;6486;51.034;5.262;2023-05-21T05:25:39;15.90;63.90
12839;DHT22;6486;51.034;5.262;2023-05-21T05:28:04;15.90;63.80
12839;DHT22;6486;51.034;5.262;2023-05-21T05:30:30;16.00;63.90
12839;DHT22;6486;51.034;5.262;2023-05-21T05:32:56;16.00;63.90
12839;DHT22;6486;51.034;5.262;2023-05-21T05:35:21;16.00;63.80
12839;DHT22;6486;51.034;5.262;2023-05-21T05:37:47;16.10;63.90
12839;DHT22;6486;51.034;5.262;2023-05-21T05:40:12;16.10;63.90
12839;DHT22;6486;51.034;5.262;2023-05-21T05:42:38;16.20;64.00
12839;DHT22;6486;51.034;5.262;2023-05-21T05:45:05;16.20;63.90
12839;DHT22;6486;51.034;5.262;2023-05-21T05:47:31;16.30;64.00
12839;DHT22;6486;51.034;5.262;2023-05-21T05:49:56;16.30;63.90
12839;DHT22;6486;51.034;5.262;2023-05-21T05:52:22;16.30;63.80
12839;DHT22;6486;51.034;5.262;2023-05-21T05:54:47;16.40;63.90
12839;DHT22;6486;51.034;5.262;2023-05-21T05:57:13;16.40;63.80
12839;DHT22;6486;51.034;5.262;2023-05-21T05:59:39;16.40;63.80
12839;DHT22;6486;51.034;5.262;2023-05-21T06:02:04;16.50;63.90
12839;DHT22;6486;51.034;5.262;2023-05-21T06:04:30;16.50;63.90
12839;DHT22;6486;51.034;5.262;2023-05-21T06:06:56;16.50;63.90
12839;DHT22;6486;51.034;5.262;2023-05-21T06:09:22;16.60;64.00
12839;DHT22;6486;51.034;5.262;2023-05-21T06:11:49;16.60;64.00
12839;DHT22;6486;51.034;5.262;2023-05-21T06:14:14;16.60;64.00
12839;DHT22;6486;51.034;5.262;2023-05-21T06:16:40;16.60;63.90
12839;DHT22;6486;51.034;5.262;2023-05-21T06:19:06;16.70;64.00
12839;DHT22;6486;51.034;5.262;2023-05-21T06:21:31;16.70;63.80
12839;DHT22;6486;51.034;5.262;2023-05-21T06:23:57;16.80;63.90
12839;DHT22;6486;51.034;5.262;2023-05-21T06:26:23;16.90;63.90
12839;DHT22;6486;51.034;5.262;2023-05-21T06:28:49;17.00;64.00
12839;DHT22;6486;51.034;5.262;2023-05-21T06:31:15;17.00;63.80
12839;DHT22;6486;51.034;5.262;2023-05-21T06:33:41;17.10;63.80
12839;DHT22;6486;51.034;5.262;2023-05-21T06:36:06;17.20;63.80
12839;DHT22;6486;51.034;5.262;2023-05-21T06:38:32;17.20;63.70
12839;DHT22;6486;51.034;5.262;2023-05-21T06:40:58;17.30;63.70
12839;DHT22;6486;51.034;5.262;2023-05-21T06:43:24;17.40;63.70
12839;DHT22;6486;51.034;5.262;2023-05-21T06:45:50;17.50;63.70
12839;DHT22;6486;51.034;5.262;2023-05-21T06:48:15;17.60;63.70
12839;DHT22;6486;51.034;5.262;2023-05-21T06:50:42;17.60;63.60
12839;DHT22;6486;51.034;5.262;2023-05-21T06:53:08;17.70;63.70
12839;DHT22;6486;51.034;5.262;2023-05-21T06:55:33;17.70;63.50
12839;DHT22;6486;51.034;5.262;2023-05-21T06:57:59;17.80;63.60
12839;DHT22;6486;51.034;5.262;2023-05-21T07:00:25;18.00;64.20
12839;DHT22;6486;51.034;5.262;2023-05-21T07:02:50;18.10;63.30
12839;DHT22;6486;51.034;5.262;2023-05-21T07:05:16;18.20;63.30
12839;DHT22;6486;51.034;5.262;2023-05-21T07:07:42;18.30;63.20
12839;DHT22;6486;51.034;5.262;2023-05-21T07:10:08;18.40;63.30
12839;DHT22;6486;51.034;5.262;2023-05-21T07:12:34;18.30;63.10
12839;DHT22;6486;51.034;5.262;2023-05-21T07:14:59;18.40;63.30
12839;DHT22;6486;51.034;5.262;2023-05-21T07:17:25;18.40;63.20
12839;DHT22;6486;51.034;5.262;2023-05-21T07:19:51;18.50;63.20
12839;DHT22;6486;51.034;5.262;2023-05-21T07:22:16;18.60;63.10
12839;DHT22;6486;51.034;5.262;2023-05-21T07:24:42;18.60;62.80
12839;DHT22;6486;51.034;5.262;2023-05-21T07:27:08;18.60;62.80
12839;DHT22;6486;51.034;5.262;2023-05-21T07:29:33;18.70;62.70
12839;DHT22;6486;51.034;5.262;2023-05-21T07:31:59;19.00;62.50
12839;DHT22;6486;51.034;5.262;2023-05-21T07:34:25;19.20;62.20
12839;DHT22;6486;51.034;5.262;2023-05-21T07:36:51;19.30;61.90
12839;DHT22;6486;51.034;5.262;2023-05-21T07:39:17;19.50;61.60
12839;DHT22;6486;51.034;5.262;2023-05-21T07:41:43;19.60;61.30
12839;DHT22;6486;51.034;5.262;2023-05-21T07:44:08;19.70;61.20
12839;DHT22;6486;51.034;5.262;2023-05-21T07:46:35;19.70;61.00
12839;DHT22;6486;51.034;5.262;2023-05-21T07:49:00;19.80;61.10
12839;DHT22;6486;51.034;5.262;2023-05-21T07:51:26;19.80;61.00
12839;DHT22;6486;51.034;5.262;2023-05-21T07:53:52;19.80;60.80
12839;DHT22;6486;51.034;5.262;2023-05-21T07:56:17;19.90;60.80
12839;DHT22;6486;51.034;5.262;2023-05-21T07:58:43;19.90;60.70
12839;DHT22;6486;51.034;5.262;2023-05-21T08:01:10;20.00;60.60
12839;DHT22;6486;51.034;5.262;2023-05-21T08:03:36;20.10;60.50
12839;DHT22;6486;51.034;5.262;2023-05-21T08:06:02;20.10;60.40
12839;DHT22;6486;51.034;5.262;2023-05-21T08:08:28;20.20;60.30
12839;DHT22;6486;51.034;5.262;2023-05-21T08:10:54;20.20;60.20
12839;DHT22;6486;51.034;5.262;2023-05-21T08:13:20;20.20;60.10
12839;DHT22;6486;51.034;5.262;2023-05-21T08:15:47;20.40;60.00
12839;DHT22;6486;51.034;5.262;2023-05-21T08:18:12;20.50;59.80
12839;DHT22;6486;51.034;5.262;2023-05-21T08:20:38;20.60;59.70
12839;DHT22;6486;51.034;5.262;2023-05-21T08:23:04;20.70;59.70
12839;DHT22;6486;51.034;5.262;2023-05-21T08:25:30;20.70;59.60
12839;DHT22;6486;51.034;5.262;2023-05-21T08:27:55;20.70;59.50
12839;DHT22;6486;51.034;5.262;2023-05-21T08:30:21;20.70;59.40
12839;DHT22;6486;51.034;5.262;2023-05-21T08:32:48;20.80;59.30
12839;DHT22;6486;51.034;5.262;2023-05-21T08:35:13;20.80;59.30
12839;DHT22;6486;51.034;5.262;2023-05-21T08:37:39;20.80;59.40
12839;DHT22;6486;51.034;5.262;2023-05-21T08:40:05;20.80;59.30
12839;DHT22;6486;51.034;5.262;2023-05-21T08:42:48;20.80;59.20
12839;DHT22;6486;51.034;5.262;2023-05-21T08:45:19;20.90;59.20
12839;DHT22;6486;51.034;5.262;2023-05-21T08:47:44;21.20;59.10
12839;DHT22;6486;51.034;5.262;2023-05-21T08:50:15;21.30;59.00
12839;DHT22;6486;51.034;5.262;2023-05-21T08:52:41;21.50;58.80
12839;DHT22;6486;51.034;5.262;2023-05-21T08:55:07;21.80;58.60
12839;DHT22;6486;51.034;5.262;2023-05-21T08:57:33;22.10;58.40
12839;DHT22;6486;51.034;5.262;2023-05-21T08:59:59;22.30;58.00
12839;DHT22;6486;51.034;5.262;2023-05-21T09:02:26;22.40;57.80
12839;DHT22;6486;51.034;5.262;2023-05-21T09:04:53;22.50;57.50
12839;DHT22;6486;51.034;5.262;2023-05-21T09:07:24;22.50;57.40
12839;DHT22;6486;51.034;5.262;2023-05-21T09:09:56;22.40;57.20
12839;DHT22;6486;51.034;5.262;2023-05-21T09:12:23;22.40;57.20
12839;DHT22;6486;51.034;5.262;2023-05-21T09:14:52;22.40;57.20
12839;DHT22;6486;51.034;5.262;2023-05-21T09:17:18;22.40;57.30
12839;DHT22;6486;51.034;5.262;2023-05-21T09:22:32;22.50;57.20
12839;DHT22;6486;51.034;5.262;2023-05-21T09:24:58;22.60;57.00
12839;DHT22;6486;51.034;5.262;2023-05-21T09:27:23;22.80;57.00
12839;DHT22;6486;51.034;5.262;2023-05-21T09:29:49;22.90;56.80
12839;DHT22;6486;51.034;5.262;2023-05-21T09:32:16;23.10;56.60
12839;DHT22;6486;51.034;5.262;2023-05-21T09:34:42;23.30;56.50
12839;DHT22;6486;51.034;5.262;2023-05-21T09:37:08;23.40;56.40
12839;DHT22;6486;51.034;5.262;2023-05-21T09:39:34;23.70;56.10
12839;DHT22;6486;51.034;5.262;2023-05-21T09:42:00;23.90;55.90
12839;DHT22;6486;51.034;5.262;2023-05-21T09:44:26;24.10;55.60
12839;DHT22;6486;51.034;5.262;2023-05-21T09:46:56;24.20;55.40
12839;DHT22;6486;51.034;5.262;2023-05-21T09:49:24;24.40;55.00
12839;DHT22;6486;51.034;5.262;2023-05-21T09:51:57;24.50;55.00
12839;DHT22;6486;51.034;5.262;2023-05-21T09:54:24;24.60;54.60
12839;DHT22;6486;51.034;5.262;2023-05-21T09:56:50;24.70;54.40
12839;DHT22;6486;51.034;5.262;2023-05-21T09:59:19;24.80;53.90
12839;DHT22;6486;51.034;5.262;2023-05-21T10:01:45;24.90;53.90
12839;DHT22;6486;51.034;5.262;2023-05-21T10:04:12;25.00;53.70
12839;DHT22;6486;51.034;5.262;2023-05-21T10:06:42;25.20;53.50
12839;DHT22;6486;51.034;5.262;2023-05-21T10:09:11;25.30;53.40
12839;DHT22;6486;51.034;5.262;2023-05-21T10:11:43;25.40;53.20
12839;DHT22;6486;51.034;5.262;2023-05-21T10:14:15;25.60;53.00
12839;DHT22;6486;51.034;5.262;2023-05-21T10:16:41;25.70;52.70
12839;DHT22;6486;51.034;5.262;2023-05-21T10:19:08;25.80;52.20
12839;DHT22;6486;51.034;5.262;2023-05-21T10:21:37;25.80;52.10
12839;DHT22;6486;51.034;5.262;2023-05-21T10:24:06;25.80;52.20
12839;DHT22;6486;51.034;5.262;2023-05-21T10:26:33;25.90;51.80
12839;DHT22;6486;51.034;5.262;2023-05-21T10:29:01;26.00;51.60
12839;DHT22;6486;51.034;5.262;2023-05-21T10:31:28;26.10;51.20
12839;DHT22;6486;51.034;5.262;2023-05-21T10:33:54;26.10;51.20
12839;DHT22;6486;51.034;5.262;2023-05-21T10:36:20;26.20;51.30
12839;DHT22;6486;51.034;5.262;2023-05-21T10:38:48;26.10;51.30
12839;DHT22;6486;51.034;5.262;2023-05-21T10:41:17;26.00;51.30
12839;DHT22;6486;51.034;5.262;2023-05-21T10:49:58;26.40;50.90
12839;DHT22;6486;51.034;5.262;2023-05-21T11:00:52;26.90;50.20
12839;DHT22;6486;51.034;5.262;2023-05-21T11:03:20;27.00;49.90
12839;DHT22;6486;51.034;5.262;2023-05-21T11:05:56;27.20;49.80
12839;DHT22;6486;51.034;5.262;2023-05-21T11:08:27;27.30;49.70
12839;DHT22;6486;51.034;5.262;2023-05-21T11:10:57;27.40;49.50
12839;DHT22;6486;51.034;5.262;2023-05-21T11:13:24;27.50;49.20
12839;DHT22;6486;51.034;5.262;2023-05-21T11:21:14;27.70;49.10
12839;DHT22;6486;51.034;5.262;2023-05-21T11:23:53;27.80;49.00
12839;DHT22;6486;51.034;5.262;2023-05-21T11:26:27;27.90;48.50
12839;DHT22;6486;51.034;5.262;2023-05-21T11:31:27;28.20;48.10
12839;DHT22;6486;51.034;5.262;2023-05-21T11:34:20;28.20;47.40
12839;DHT22;6486;51.034;5.262;2023-05-21T11:39:55;28.10;47.90
12839;DHT22;6486;51.034;5.262;2023-05-21T11:42:31;28.10;47.50
12839;DHT22;6486;51.034;5.262;2023-05-21T11:44:58;28.20;47.60
12839;DHT22;6486;51.034;5.262;2023-05-21T11:47:25;28.40;47.80
12839;DHT22;6486;51.034;5.262;2023-05-21T11:49:51;28.60;47.60
12839;DHT22;6486;51.034;5.262;2023-05-21T11:52:16;28.70;47.20
12839;DHT22;6486;51.034;5.262;2023-05-21T11:54:51;28.70;46.90
12839;DHT22;6486;51.034;5.262;2023-05-21T11:57:24;28.60;46.50
12839;DHT22;6486;51.034;5.262;2023-05-21T11:59:51;28.60;46.70
12839;DHT22;6486;51.034;5.262;2023-05-21T12:02:20;28.70;46.80
12839;DHT22;6486;51.034;5.262;2023-05-21T12:04:48;28.70;47.00
12839;DHT22;6486;51.034;5.262;2023-05-21T12:07:17;28.50;47.00
12839;DHT22;6486;51.034;5.262;2023-05-21T12:09:50;28.30;47.10
12839;DHT22;6486;51.034;5.262;2023-05-21T12:12:26;28.20;46.90
12839;DHT22;6486;51.034;5.262;2023-05-21T12:14:53;28.10;47.20
12839;DHT22;6486;51.034;5.262;2023-05-21T12:17:20;28.20;47.50
12839;DHT22;6486;51.034;5.262;2023-05-21T12:19:48;28.10;47.60
12839;DHT22;6486;51.034;5.262;2023-05-21T12:22:14;28.00;47.70
12839;DHT22;6486;51.034;5.262;2023-05-21T12:24:41;27.90;47.50
12839;DHT22;6486;51.034;5.262;2023-05-21T12:27:10;27.90;47.40
12839;DHT22;6486;51.034;5.262;2023-05-21T12:29:41;28.00;47.50
12839;DHT22;6486;51.034;5.262;2023-05-21T12:32:09;28.10;47.60
12839;DHT22;6486;51.034;5.262;2023-05-21T12:37:25;28.00;47.40
12839;DHT22;6486;51.034;5.262;2023-05-21T12:39:52;27.80;47.60
12839;DHT22;6486;51.034;5.262;2023-05-21T12:42:26;27.90;48.00
12839;DHT22;6486;51.034;5.262;2023-05-21T12:44:52;28.00;48.10
12839;DHT22;6486;51.034;5.262;2023-05-21T12:47:21;28.00;48.10
12839;DHT22;6486;51.034;5.262;2023-05-21T12:49:47;28.00;47.90
12839;DHT22;6486;51.034;5.262;2023-05-21T12:52:14;28.20;47.90
12839;DHT22;6486;51.034;5.262;2023-05-21T12:54:42;28.50;47.70
12839;DHT22;6486;51.034;5.262;2023-05-21T12:57:18;28.80;47.40
12839;DHT22;6486;51.034;5.262;2023-05-21T13:02:27;29.20;46.90
12839;DHT22;6486;51.034;5.262;2023-05-21T13:05:04;29.30;46.70
12839;DHT22;6486;51.034;5.262;2023-05-21T13:07:32;29.30;46.50
12839;DHT22;6486;51.034;5.262;2023-05-21T13:09:59;29.30;46.20
12839;DHT22;6486;51.034;5.262;2023-05-21T13:12:29;29.50;46.10
12839;DHT22;6486;51.034;5.262;2023-05-21T13:14:56;29.70;45.90
12839;DHT22;6486;51.034;5.262;2023-05-21T13:17:23;29.80;45.60
12839;DHT22;6486;51.034;5.262;2023-05-21T13:20:14;29.90;45.50
12839;DHT22;6486;51.034;5.262;2023-05-21T13:22:42;30.00;45.30
12839;DHT22;6486;51.034;5.262;2023-05-21T13:25:11;30.00;45.30
12839;DHT22;6486;51.034;5.262;2023-05-21T13:27:37;30.00;44.90
12839;DHT22;6486;51.034;5.262;2023-05-21T13:30:05;30.00;44.80
12839;DHT22;6486;51.034;5.262;2023-05-21T13:32:30;30.10;44.80
12839;DHT22;6486;51.034;5.262;2023-05-21T13:34:56;30.10;44.80
12839;DHT22;6486;51.034;5.262;2023-05-21T13:37:22;30.20;44.90
12839;DHT22;6486;51.034;5.262;2023-05-21T13:39:47;30.20;44.50
12839;DHT22;6486;51.034;5.262;2023-05-21T13:42:13;30.10;44.40
12839;DHT22;6486;51.034;5.262;2023-05-21T13:44:39;29.90;44.40
12839;DHT22;6486;51.034;5.262;2023-05-21T13:47:05;29.90;44.50
12839;DHT22;6486;51.034;5.262;2023-05-21T13:49:34;29.90;44.70
12839;DHT22;6486;51.034;5.262;2023-05-21T13:52:00;29.90;44.80
12839;DHT22;6486;51.034;5.262;2023-05-21T13:54:26;29.90;44.80
12839;DHT22;6486;51.034;5.262;2023-05-21T13:56:52;29.80;44.70
12839;DHT22;6486;51.034;5.262;2023-05-21T13:59:18;29.80;44.80
12839;DHT22;6486;51.034;5.262;2023-05-21T14:01:44;29.90;45.00
12839;DHT22;6486;51.034;5.262;2023-05-21T14:04:10;30.00;44.90
12839;DHT22;6486;51.034;5.262;2023-05-21T14:06:37;30.00;44.80
12839;DHT22;6486;51.034;5.262;2023-05-21T14:09:03;30.00;44.80
12839;DHT22;6486;51.034;5.262;2023-05-21T14:11:30;30.10;44.70
12839;DHT22;6486;51.034;5.262;2023-05-21T14:13:56;30.20;44.50
12839;DHT22;6486;51.034;5.262;2023-05-21T14:16:23;30.30;44.40
12839;DHT22;6486;51.034;5.262;2023-05-21T14:18:50;30.50;44.20
12839;DHT22;6486;51.034;5.262;2023-05-21T14:21:16;30.60;44.10
12839;DHT22;6486;51.034;5.262;2023-05-21T14:23:42;30.70;43.80
12839;DHT22;6486;51.034;5.262;2023-05-21T14:26:07;30.80;43.50
12839;DHT22;6486;51.034;5.262;2023-05-21T14:28:33;30.90;43.20
12839;DHT22;6486;51.034;5.262;2023-05-21T14:30:59;31.00;43.30
12839;DHT22;6486;51.034;5.262;2023-05-21T14:33:24;31.00;43.40
12839;DHT22;6486;51.034;5.262;2023-05-21T14:35:50;31.00;43.40
12839;DHT22;6486;51.034;5.262;2023-05-21T14:38:16;31.00;43.30
12839;DHT22;6486;51.034;5.262;2023-05-21T14:40:41;30.90;43.10
12839;DHT22;6486;51.034;5.262;2023-05-21T14:43:07;30.90;43.20
12839;DHT22;6486;51.034;5.262;2023-05-21T14:45:32;31.00;43.10
12839;DHT22;6486;51.034;5.262;2023-05-21T14:48:02;31.00;42.90
12839;DHT22;6486;51.034;5.262;2023-05-21T14:50:39;31.10;42.70
12839;DHT22;6486;51.034;5.262;2023-05-21T14:53:06;31.10;42.60
12839;DHT22;6486;51.034;5.262;2023-05-21T14:55:33;31.10;42.60
12839;DHT22;6486;51.034;5.262;2023-05-21T14:57:59;31.30;42.90
12839;DHT22;6486;51.034;5.262;2023-05-21T15:00:25;31.30;43.00
12839;DHT22;6486;51.034;5.262;2023-05-21T15:02:51;31.30;42.90
12839;DHT22;6486;51.034;5.262;2023-05-21T15:05:18;31.40;42.80
12839;DHT22;6486;51.034;5.262;2023-05-21T15:07:44;31.40;42.50
12839;DHT22;6486;51.034;5.262;2023-05-21T15:10:09;31.30;42.50
12839;DHT22;6486;51.034;5.262;2023-05-21T15:12:36;31.10;42.50
12839;DHT22;6486;51.034;5.262;2023-05-21T15:15:02;31.00;42.70
12839;DHT22;6486;51.034;5.262;2023-05-21T15:17:28;31.00;42.70
12839;DHT22;6486;51.034;5.262;2023-05-21T15:19:54;31.00;42.80
12839;DHT22;6486;51.034;5.262;2023-05-21T15:22:19;31.00;42.70
12839;DHT22;6486;51.034;5.262;2023-05-21T15:24:45;31.00;42.80
12839;DHT22;6486;51.034;5.262;2023-05-21T15:27:11;31.00;42.90
12839;DHT22;6486;51.034;5.262;2023-05-21T15:29:37;31.00;42.90
12839;DHT22;6486;51.034;5.262;2023-05-21T15:32:03;30.80;43.00
12839;DHT22;6486;51.034;5.262;2023-05-21T15:34:32;30.50;43.20
12839;DHT22;6486;51.034;5.262;2023-05-21T15:36:58;30.30;43.50
12839;DHT22;6486;51.034;5.262;2023-05-21T15:39:25;30.30;43.70
12839;DHT22;6486;51.034;5.262;2023-05-21T15:41:51;30.20;43.80
12839;DHT22;6486;51.034;5.262;2023-05-21T15:44:19;30.00;44.10
12839;DHT22;6486;51.034;5.262;2023-05-21T15:46:45;29.90;44.30
12839;DHT22;6486;51.034;5.262;2023-05-21T15:49:10;29.80;44.50
12839;DHT22;6486;51.034;5.262;2023-05-21T15:51:36;29.80;44.70
12839;DHT22;6486;51.034;5.262;2023-05-21T15:54:02;29.90;44.70
12839;DHT22;6486;51.034;5.262;2023-05-21T15:56:28;30.10;44.70
12839;DHT22;6486;51.034;5.262;2023-05-21T15:58:54;30.30;44.70
12839;DHT22;6486;51.034;5.262;2023-05-21T16:01:22;30.30;44.60
12839;DHT22;6486;51.034;5.262;2023-05-21T16:03:48;30.20;44.50
12839;DHT22;6486;51.034;5.262;2023-05-21T16:06:14;30.20;44.60
12839;DHT22;6486;51.034;5.262;2023-05-21T16:08:39;30.00;44.40
12839;DHT22;6486;51.034;5.262;2023-05-21T16:11:05;29.90;44.30
12839;DHT22;6486;51.034;5.262;2023-05-21T16:13:31;29.70;44.40
12839;DHT22;6486;51.034;5.262;2023-05-21T16:15:56;29.60;44.50
12839;DHT22;6486;51.034;5.262;2023-05-21T16:18:22;29.40;44.90
12839;DHT22;6486;51.034;5.262;2023-05-21T16:20:48;29.20;45.00